sensor_id;sensor_type;location;lat;lon;timestamp;pressure;altitude;pressure_sealevel;temperature;humidity
77749;BME280;66938;52.084;5.228;2023-12-14T00:01:29;101078.0;;;7.14;100.0
77749;BME280;66938;52.084;5.228;2023-12-14T00:03:05;101080.0;;;7.14;100.0
77749;BME280;66938;52.084;5.228;2023-12-14T00:04:41;101086.0;;;7.18;100.0
77749;BME280;66938;52.084;5.228;2023-12-14T00:07:53;101091.0;;;7.11;100.0
77749;BME280;66938;52.084;5.228;2023-12-14T00:09:29;101098.0;;;7.02;100.0
77749;BME280;66938;52.084;5.228;2023-12-14T00:11:06;101100.0;;;6.97;100.0
77749;BME280;66938;52.084;5.228;2023-12-14T00:14:19;101109.0;;;6.99;100.0
77749;BME280;66938;52.084;5.228;2023-12-14T00:15:55;101109.0;;;6.96;100.0
77749;BME280;66938;52.084;5.228;2023-12-14T00:17:31;101114.0;;;6.97;100.0
77749;BME280;66938;52.084;5.228;2023-12-14T00:20:43;101119.0;;;6.95;100.0
77749;BME280;66938;52.084;5.228;2023-12-14T00:22:19;101126.0;;;6.95;100.0
77749;BME280;66938;52.084;5.228;2023-12-14T00:23:55;101131.0;;;6.87;100.0
77749;BME280;66938;52.084;5.228;2023-12-14T00:25:31;101137.0;;;6.9;100.0
77749;BME280;66938;52.084;5.228;2023-12-14T00:28:44;101138.0;;;6.89;100.0
77749;BME280;66938;52.084;5.228;2023-12-14T00:30:20;101139.0;;;6.87;100.0
77749;BME280;66938;52.084;5.228;2023-12-14T00:31:56;101144.0;;;6.87;100.0
77749;BME280;66938;52.084;5.228;2023-12-14T00:35:08;101143.0;;;6.91;100.0
77749;BME280;66938;52.084;5.228;2023-12-14T00:36:44;101138.0;;;6.91;100.0
77749;BME280;66938;52.084;5.228;2023-12-14T00:38:20;101135.0;;;6.91;100.0
77749;BME280;66938;52.084;5.228;2023-12-14T00:41:33;101137.0;;;6.94;100.0
77749;BME280;66938;52.084;5.228;2023-12-14T00:43:08;101137.0;;;6.89;100.0
77749;BME280;66938;52.084;5.228;2023-12-14T00:44:44;101140.0;;;6.91;100.0
77749;BME280;66938;52.084;5.228;2023-12-14T00:47:56;101148.0;;;6.91;100.0
77749;BME280;66938;52.084;5.228;2023-12-14T00:49:32;101153.0;;;6.97;100.0
77749;BME280;66938;52.084;5.228;2023-12-14T00:51:08;101166.0;;;6.93;100.0
77749;BME280;66938;52.084;5.228;2023-12-14T00:52:44;101173.0;;;6.97;100.0
77749;BME280;66938;52.084;5.228;2023-12-14T00:55:57;101174.0;;;7.0;100.0
77749;BME280;66938;52.084;5.228;2023-12-14T00:57:33;101178.0;;;6.95;100.0
77749;BME280;66938;52.084;5.228;2023-12-14T00:59:09;101180.0;;;6.97;100.0
77749;BME280;66938;52.084;5.228;2023-12-14T01:02:21;101183.0;;;6.9;100.0
77749;BME280;66938;52.084;5.228;2023-12-14T01:03:57;101186.0;;;6.89;100.0
77749;BME280;66938;52.084;5.228;2023-12-14T01:05:33;101192.0;;;6.85;100.0
77749;BME280;66938;52.084;5.228;2023-12-14T01:08:46;101199.0;;;6.83;100.0
77749;BME280;66938;52.084;5.228;2023-12-14T01:10:22;101209.0;;;6.8;100.0
77749;BME280;66938;52.084;5.228;2023-12-14T01:11:58;101210.0;;;6.85;100.0
77749;BME280;66938;52.084;5.228;2023-12-14T01:13:34;101213.0;;;6.85;100.0
77749;BME280;66938;52.084;5.228;2023-12-14T01:16:47;101216.0;;;6.85;100.0
77749;BME280;66938;52.084;5.228;2023-12-14T01:18:23;101217.0;;;6.84;100.0
77749;BME280;66938;52.084;5.228;2023-12-14T01:19:59;101215.0;;;6.78;100.0
77749;BME280;66938;52.084;5.228;2023-12-14T01:23:12;101210.0;;;6.79;100.0
77749;BME280;66938;52.084;5.228;2023-12-14T01:24:48;101214.0;;;6.81;100.0
77749;BME280;66938;52.084;5.228;2023-12-14T01:26:24;101216.0;;;6.86;100.0
77749;BME280;66938;52.084;5.228;2023-12-14T01:29:36;101223.0;;;6.8;100.0
77749;BME280;66938;52.084;5.228;2023-12-14T01:31:12;101221.0;;;6.77;100.0
77749;BME280;66938;52.084;5.228;2023-12-14T01:32:48;101217.0;;;6.78;100.0
77749;BME280;66938;52.084;5.228;2023-12-14T01:36:00;101228.0;;;6.83;100.0
77749;BME280;66938;52.084;5.228;2023-12-14T01:37:36;101237.0;;;6.79;100.0
77749;BME280;66938;52.084;5.228;2023-12-14T01:39:13;101242.0;;;6.81;100.0
77749;BME280;66938;52.084;5.228;2023-12-14T01:40:49;101250.0;;;6.83;100.0
77749;BME280;66938;52.084;5.228;2023-12-14T01:44:01;101255.0;;;6.79;100.0
77749;BME280;66938;52.084;5.228;2023-12-14T01:45:37;101257.0;;;6.81;100.0
77749;BME280;66938;52.084;5.228;2023-12-14T01:47:13;101263.0;;;6.76;100.0
77749;BME280;66938;52.084;5.228;2023-12-14T01:50:25;101267.0;;;6.77;100.0
77749;BME280;66938;52.084;5.228;2023-12-14T01:52:02;101269.0;;;6.78;100.0
77749;BME280;66938;52.084;5.228;2023-12-14T01:53:38;101271.0;;;6.76;100.0
77749;BME280;66938;52.084;5.228;2023-12-14T01:56:50;101274.0;;;6.81;100.0
77749;BME280;66938;52.084;5.228;2023-12-14T01:58:26;101273.0;;;6.85;100.0
77749;BME280;66938;52.084;5.228;2023-12-14T02:00:03;101280.0;;;6.88;100.0
77749;BME280;66938;52.084;5.228;2023-12-14T02:03:18;101283.0;;;6.87;100.0
77749;BME280;66938;52.084;5.228;2023-12-14T02:04:55;101295.0;;;6.9;100.0
77749;BME280;66938;52.084;5.228;2023-12-14T02:06:31;101306.0;;;6.9;100.0
77749;BME280;66938;52.084;5.228;2023-12-14T02:08:07;101310.0;;;6.87;100.0
77749;BME280;66938;52.084;5.228;2023-12-14T02:11:19;101316.0;;;6.87;100.0
77749;BME280;66938;52.084;5.228;2023-12-14T02:12:55;101317.0;;;6.87;100.0
77749;BME280;66938;52.084;5.228;2023-12-14T02:14:31;101315.0;;;6.85;100.0
77749;BME280;66938;52.084;5.228;2023-12-14T02:17:44;101326.0;;;6.83;100.0
77749;BME280;66938;52.084;5.228;2023-12-14T02:19:20;101331.0;;;6.84;100.0
77749;BME280;66938;52.084;5.228;2023-12-14T02:20:56;101330.0;;;6.8;100.0
77749;BME280;66938;52.084;5.228;2023-12-14T02:24:12;101332.0;;;6.76;100.0
77749;BME280;66938;52.084;5.228;2023-12-14T02:25:48;101336.0;;;6.83;100.0
77749;BME280;66938;52.084;5.228;2023-12-14T02:27:24;101346.0;;;6.86;100.0
77749;BME280;66938;52.084;5.228;2023-12-14T02:29:00;101352.0;;;6.86;100.0
77749;BME280;66938;52.084;5.228;2023-12-14T02:32:13;101361.0;;;6.89;100.0
77749;BME280;66938;52.084;5.228;2023-12-14T02:33:49;101359.0;;;6.88;100.0
77749;BME280;66938;52.084;5.228;2023-12-14T02:35:25;101363.0;;;6.82;100.0
77749;BME280;66938;52.084;5.228;2023-12-14T02:38:37;101364.0;;;6.85;100.0
77749;BME280;66938;52.084;5.228;2023-12-14T02:40:13;101373.0;;;6.85;100.0
77749;BME280;66938;52.084;5.228;2023-12-14T02:41:49;101372.0;;;6.82;100.0
77749;BME280;66938;52.084;5.228;2023-12-14T02:45:02;101374.0;;;6.85;100.0
77749;BME280;66938;52.084;5.228;2023-12-14T02:46:38;101371.0;;;6.89;100.0
77749;BME280;66938;52.084;5.228;2023-12-14T02:48:15;101371.0;;;6.91;100.0
77749;BME280;66938;52.084;5.228;2023-12-14T02:49:51;101374.0;;;6.87;100.0
77749;BME280;66938;52.084;5.228;2023-12-14T02:53:03;101375.0;;;6.89;100.0
77749;BME280;66938;52.084;5.228;2023-12-14T02:54:39;101380.0;;;6.86;100.0
77749;BME280;66938;52.084;5.228;2023-12-14T02:56:15;101384.0;;;6.85;100.0
77749;BME280;66938;52.084;5.228;2023-12-14T02:59:27;101387.0;;;6.82;100.0
77749;BME280;66938;52.084;5.228;2023-12-14T03:01:05;101387.0;;;6.81;100.0
77749;BME280;66938;52.084;5.228;2023-12-14T03:02:41;101391.0;;;6.82;100.0
77749;BME280;66938;52.084;5.228;2023-12-14T03:05:54;101392.0;;;6.83;100.0
77749;BME280;66938;52.084;5.228;2023-12-14T03:07:30;101394.0;;;6.81;100.0
77749;BME280;66938;52.084;5.228;2023-12-14T03:09:06;101398.0;;;6.77;100.0
77749;BME280;66938;52.084;5.228;2023-12-14T03:10:42;101397.0;;;6.74;100.0
77749;BME280;66938;52.084;5.228;2023-12-14T03:13:54;101402.0;;;6.76;100.0
77749;BME280;66938;52.084;5.228;2023-12-14T03:15:31;101401.0;;;6.77;100.0
77749;BME280;66938;52.084;5.228;2023-12-14T03:17:07;101396.0;;;6.76;100.0
77749;BME280;66938;52.084;5.228;2023-12-14T03:20:20;101395.0;;;6.74;100.0
77749;BME280;66938;52.084;5.228;2023-12-14T03:21:56;101397.0;;;6.8;100.0
77749;BME280;66938;52.084;5.228;2023-12-14T03:23:32;101412.0;;;6.78;100.0
77749;BME280;66938;52.084;5.228;2023-12-14T03:26:45;101410.0;;;6.78;100.0
77749;BME280;66938;52.084;5.228;2023-12-14T03:28:21;101405.0;;;6.77;100.0
77749;BME280;66938;52.084;5.228;2023-12-14T03:29:58;101412.0;;;6.74;100.0
77749;BME280;66938;52.084;5.228;2023-12-14T03:33:10;101411.0;;;6.76;100.0
77749;BME280;66938;52.084;5.228;2023-12-14T03:34:46;101411.0;;;6.75;100.0
77749;BME280;66938;52.084;5.228;2023-12-14T03:36:22;101402.0;;;6.74;100.0
77749;BME280;66938;52.084;5.228;2023-12-14T03:37:58;101407.0;;;6.7;100.0
77749;BME280;66938;52.084;5.228;2023-12-14T03:41:10;101396.0;;;6.7;100.0
77749;BME280;66938;52.084;5.228;2023-12-14T03:42:46;101405.0;;;6.68;100.0
77749;BME280;66938;52.084;5.228;2023-12-14T03:44:23;101401.0;;;6.76;100.0
77749;BME280;66938;52.084;5.228;2023-12-14T03:47:35;101403.0;;;6.76;100.0
77749;BME280;66938;52.084;5.228;2023-12-14T03:49:11;101402.0;;;6.74;100.0
77749;BME280;66938;52.084;5.228;2023-12-14T03:50:47;101409.0;;;6.77;100.0
77749;BME280;66938;52.084;5.228;2023-12-14T03:53:59;101419.0;;;6.76;100.0
77749;BME280;66938;52.084;5.228;2023-12-14T03:55:35;101422.0;;;6.76;100.0
77749;BME280;66938;52.084;5.228;2023-12-14T03:57:12;101425.0;;;6.75;100.0
77749;BME280;66938;52.084;5.228;2023-12-14T03:58:48;101427.0;;;6.75;100.0
77749;BME280;66938;52.084;5.228;2023-12-14T04:02:01;101430.0;;;6.68;100.0
77749;BME280;66938;52.084;5.228;2023-12-14T04:03:37;101435.0;;;6.69;100.0
77749;BME280;66938;52.084;5.228;2023-12-14T04:05:13;101437.0;;;6.66;100.0
77749;BME280;66938;52.084;5.228;2023-12-14T04:08:25;101442.0;;;6.62;100.0
77749;BME280;66938;52.084;5.228;2023-12-14T04:10:01;101439.0;;;6.63;100.0
77749;BME280;66938;52.084;5.228;2023-12-14T04:11:38;101437.0;;;6.57;100.0
77749;BME280;66938;52.084;5.228;2023-12-14T04:14:50;101445.0;;;6.56;100.0
77749;BME280;66938;52.084;5.228;2023-12-14T04:16:26;101453.0;;;6.58;100.0
77749;BME280;66938;52.084;5.228;2023-12-14T04:18:02;101453.0;;;6.58;100.0
77749;BME280;66938;52.084;5.228;2023-12-14T04:21:15;101457.0;;;6.57;100.0
77749;BME280;66938;52.084;5.228;2023-12-14T04:22:51;101459.0;;;6.59;100.0
77749;BME280;66938;52.084;5.228;2023-12-14T04:24:28;101465.0;;;6.55;100.0
77749;BME280;66938;52.084;5.228;2023-12-14T04:26:04;101478.0;;;6.58;100.0
77749;BME280;66938;52.084;5.228;2023-12-14T04:29:16;101478.0;;;6.56;100.0
77749;BME280;66938;52.084;5.228;2023-12-14T04:30:52;101485.0;;;6.58;100.0
77749;BME280;66938;52.084;5.228;2023-12-14T04:32:28;101496.0;;;6.58;100.0
77749;BME280;66938;52.084;5.228;2023-12-14T04:35:40;101492.0;;;6.59;100.0
77749;BME280;66938;52.084;5.228;2023-12-14T04:37:17;101497.0;;;6.51;100.0
77749;BME280;66938;52.084;5.228;2023-12-14T04:38:52;101500.0;;;6.51;100.0
77749;BME280;66938;52.084;5.228;2023-12-14T04:42:05;101505.0;;;6.51;100.0
77749;BME280;66938;52.084;5.228;2023-12-14T04:43:41;101511.0;;;6.51;100.0
77749;BME280;66938;52.084;5.228;2023-12-14T04:45:17;101513.0;;;6.5;100.0
77749;BME280;66938;52.084;5.228;2023-12-14T04:48:29;101521.0;;;6.51;100.0
77749;BME280;66938;52.084;5.228;2023-12-14T04:50:06;101524.0;;;6.51;100.0
77749;BME280;66938;52.084;5.228;2023-12-14T04:51:43;101530.0;;;6.51;100.0
77749;BME280;66938;52.084;5.228;2023-12-14T04:53:19;101531.0;;;6.49;100.0
77749;BME280;66938;52.084;5.228;2023-12-14T04:56:31;101541.0;;;6.46;100.0
77749;BME280;66938;52.084;5.228;2023-12-14T04:58:07;101544.0;;;6.46;100.0
77749;BME280;66938;52.084;5.228;2023-12-14T04:59:43;101549.0;;;6.43;100.0
77749;BME280;66938;52.084;5.228;2023-12-14T05:02:55;101548.0;;;6.43;100.0
77749;BME280;66938;52.084;5.228;2023-12-14T05:04:31;101550.0;;;6.46;100.0
77749;BME280;66938;52.084;5.228;2023-12-14T05:06:08;101556.0;;;6.47;100.0
77749;BME280;66938;52.084;5.228;2023-12-14T05:09:20;101563.0;;;6.46;100.0
77749;BME280;66938;52.084;5.228;2023-12-14T05:10:56;101570.0;;;6.41;100.0
77749;BME280;66938;52.084;5.228;2023-12-14T05:12:32;101580.0;;;6.39;100.0
77749;BME280;66938;52.084;5.228;2023-12-14T05:14:08;101584.0;;;6.41;100.0
77749;BME280;66938;52.084;5.228;2023-12-14T05:17:20;101593.0;;;6.35;100.0
77749;BME280;66938;52.084;5.228;2023-12-14T05:18:56;101598.0;;;6.33;100.0
77749;BME280;66938;52.084;5.228;2023-12-14T05:20:32;101605.0;;;6.34;100.0
77749;BME280;66938;52.084;5.228;2023-12-14T05:23:45;101602.0;;;6.32;100.0
77749;BME280;66938;52.084;5.228;2023-12-14T05:25:20;101609.0;;;6.3;100.0
77749;BME280;66938;52.084;5.228;2023-12-14T05:26:56;101611.0;;;6.29;100.0
77749;BME280;66938;52.084;5.228;2023-12-14T05:30:09;101616.0;;;6.28;100.0
77749;BME280;66938;52.084;5.228;2023-12-14T05:31:45;101617.0;;;6.24;100.0
77749;BME280;66938;52.084;5.228;2023-12-14T05:33:21;101621.0;;;6.26;100.0
77749;BME280;66938;52.084;5.228;2023-12-14T05:36:34;101619.0;;;6.28;100.0
77749;BME280;66938;52.084;5.228;2023-12-14T05:38:10;101622.0;;;6.25;100.0
77749;BME280;66938;52.084;5.228;2023-12-14T05:39:46;101631.0;;;6.25;100.0
77749;BME280;66938;52.084;5.228;2023-12-14T05:41:22;101632.0;;;6.26;100.0
77749;BME280;66938;52.084;5.228;2023-12-14T05:44:34;101630.0;;;6.26;100.0
77749;BME280;66938;52.084;5.228;2023-12-14T05:46:20;101633.0;;;6.2;100.0
77749;BME280;66938;52.084;5.228;2023-12-14T05:47:56;101635.0;;;6.26;100.0
77749;BME280;66938;52.084;5.228;2023-12-14T05:51:09;101639.0;;;6.27;100.0
77749;BME280;66938;52.084;5.228;2023-12-14T05:52:45;101638.0;;;6.24;100.0
77749;BME280;66938;52.084;5.228;2023-12-14T05:54:21;101640.0;;;6.23;100.0
77749;BME280;66938;52.084;5.228;2023-12-14T05:55:57;101649.0;;;6.22;100.0
77749;BME280;66938;52.084;5.228;2023-12-14T05:59:09;101661.0;;;6.23;100.0
77749;BME280;66938;52.084;5.228;2023-12-14T06:00:45;101666.0;;;6.23;100.0
77749;BME280;66938;52.084;5.228;2023-12-14T06:02:21;101662.0;;;6.19;100.0
77749;BME280;66938;52.084;5.228;2023-12-14T06:05:34;101669.0;;;6.21;100.0
77749;BME280;66938;52.084;5.228;2023-12-14T06:07:10;101671.0;;;6.24;100.0
77749;BME280;66938;52.084;5.228;2023-12-14T06:08:46;101670.0;;;6.22;100.0
77749;BME280;66938;52.084;5.228;2023-12-14T06:11:58;101665.0;;;6.21;100.0
77749;BME280;66938;52.084;5.228;2023-12-14T06:13:34;101673.0;;;6.22;100.0
77749;BME280;66938;52.084;5.228;2023-12-14T06:15:10;101669.0;;;6.18;100.0
77749;BME280;66938;52.084;5.228;2023-12-14T06:18:23;101670.0;;;6.22;100.0
77749;BME280;66938;52.084;5.228;2023-12-14T06:19:59;101669.0;;;6.21;100.0
77749;BME280;66938;52.084;5.228;2023-12-14T06:21:35;101680.0;;;6.19;100.0
77749;BME280;66938;52.084;5.228;2023-12-14T06:23:11;101689.0;;;6.25;100.0
77749;BME280;66938;52.084;5.228;2023-12-14T06:26:23;101699.0;;;6.27;100.0
77749;BME280;66938;52.084;5.228;2023-12-14T06:27:59;101710.0;;;6.23;100.0
77749;BME280;66938;52.084;5.228;2023-12-14T06:29:35;101715.0;;;6.21;100.0
77749;BME280;66938;52.084;5.228;2023-12-14T06:32:48;101713.0;;;6.18;100.0
77749;BME280;66938;52.084;5.228;2023-12-14T06:34:24;101725.0;;;6.18;100.0
77749;BME280;66938;52.084;5.228;2023-12-14T06:36:03;101730.0;;;6.17;100.0
77749;BME280;66938;52.084;5.228;2023-12-14T06:39:16;101736.0;;;6.17;100.0
77749;BME280;66938;52.084;5.228;2023-12-14T06:40:52;101738.0;;;6.19;100.0
77749;BME280;66938;52.084;5.228;2023-12-14T06:42:28;101742.0;;;6.17;100.0
77749;BME280;66938;52.084;5.228;2023-12-14T06:44:05;101742.0;;;6.1;100.0
77749;BME280;66938;52.084;5.228;2023-12-14T06:47:16;101745.0;;;6.07;100.0
77749;BME280;66938;52.084;5.228;2023-12-14T06:48:53;101747.0;;;6.04;100.0
77749;BME280;66938;52.084;5.228;2023-12-14T06:50:29;101749.0;;;6.04;100.0
77749;BME280;66938;52.084;5.228;2023-12-14T06:53:42;101755.0;;;6.06;100.0
77749;BME280;66938;52.084;5.228;2023-12-14T06:55:18;101761.0;;;6.03;100.0
77749;BME280;66938;52.084;5.228;2023-12-14T06:56:54;101768.0;;;6.04;100.0
77749;BME280;66938;52.084;5.228;2023-12-14T07:00:07;101768.0;;;6.04;100.0
77749;BME280;66938;52.084;5.228;2023-12-14T07:01:44;101780.0;;;5.98;100.0
77749;BME280;66938;52.084;5.228;2023-12-14T07:03:19;101786.0;;;5.99;100.0
77749;BME280;66938;52.084;5.228;2023-12-14T07:06:32;101792.0;;;5.99;100.0
77749;BME280;66938;52.084;5.228;2023-12-14T07:08:08;101796.0;;;5.9;100.0
77749;BME280;66938;52.084;5.228;2023-12-14T07:09:44;101798.0;;;5.82;100.0
77749;BME280;66938;52.084;5.228;2023-12-14T07:11:20;101800.0;;;5.88;100.0
77749;BME280;66938;52.084;5.228;2023-12-14T07:14:32;101799.0;;;5.85;100.0
77749;BME280;66938;52.084;5.228;2023-12-14T07:16:10;101799.0;;;5.86;100.0
77749;BME280;66938;52.084;5.228;2023-12-14T07:17:47;101802.0;;;5.8;100.0
77749;BME280;66938;52.084;5.228;2023-12-14T07:20:59;101805.0;;;5.81;100.0
77749;BME280;66938;52.084;5.228;2023-12-14T07:22:35;101807.0;;;5.89;100.0
77749;BME280;66938;52.084;5.228;2023-12-14T07:24:11;101806.0;;;5.93;100.0
77749;BME280;66938;52.084;5.228;2023-12-14T07:27:23;101805.0;;;5.92;100.0
77749;BME280;66938;52.084;5.228;2023-12-14T07:28:59;101809.0;;;5.93;100.0
77749;BME280;66938;52.084;5.228;2023-12-14T07:30:35;101813.0;;;5.94;100.0
77749;BME280;66938;52.084;5.228;2023-12-14T07:32:12;101820.0;;;5.96;100.0
77749;BME280;66938;52.084;5.228;2023-12-14T07:35:24;101826.0;;;5.93;100.0
77749;BME280;66938;52.084;5.228;2023-12-14T07:37:00;101837.0;;;5.96;100.0
77749;BME280;66938;52.084;5.228;2023-12-14T07:38:36;101843.0;;;5.91;100.0
77749;BME280;66938;52.084;5.228;2023-12-14T07:41:48;101835.0;;;5.93;100.0
77749;BME280;66938;52.084;5.228;2023-12-14T07:43:24;101835.0;;;5.94;100.0
77749;BME280;66938;52.084;5.228;2023-12-14T07:45:00;101838.0;;;5.95;100.0
77749;BME280;66938;52.084;5.228;2023-12-14T07:48:13;101843.0;;;5.95;100.0
77749;BME280;66938;52.084;5.228;2023-12-14T07:49:49;101844.0;;;5.84;100.0
77749;BME280;66938;52.084;5.228;2023-12-14T07:51:25;101847.0;;;5.94;100.0
77749;BME280;66938;52.084;5.228;2023-12-14T07:54:37;101856.0;;;5.89;100.0
77749;BME280;66938;52.084;5.228;2023-12-14T07:56:13;101860.0;;;5.89;100.0
77749;BME280;66938;52.084;5.228;2023-12-14T07:57:49;101858.0;;;5.89;100.0
77749;BME280;66938;52.084;5.228;2023-12-14T07:59:25;101863.0;;;5.89;100.0
77749;BME280;66938;52.084;5.228;2023-12-14T08:02:38;101863.0;;;5.92;100.0
77749;BME280;66938;52.084;5.228;2023-12-14T08:04:14;101863.0;;;5.93;100.0
77749;BME280;66938;52.084;5.228;2023-12-14T08:05:50;101869.0;;;5.89;100.0
77749;BME280;66938;52.084;5.228;2023-12-14T08:09:02;101871.0;;;5.99;100.0
77749;BME280;66938;52.084;5.228;2023-12-14T08:10:38;101871.0;;;5.92;100.0
77749;BME280;66938;52.084;5.228;2023-12-14T08:12:14;101873.0;;;5.93;100.0
77749;BME280;66938;52.084;5.228;2023-12-14T08:15:27;101875.0;;;5.96;100.0
77749;BME280;66938;52.084;5.228;2023-12-14T08:17:03;101880.0;;;5.97;100.0
77749;BME280;66938;52.084;5.228;2023-12-14T08:18:39;101883.0;;;5.96;100.0
77749;BME280;66938;52.084;5.228;2023-12-14T08:21:51;101887.0;;;5.88;100.0
77749;BME280;66938;52.084;5.228;2023-12-14T08:23:27;101885.0;;;5.92;100.0
77749;BME280;66938;52.084;5.228;2023-12-14T08:25:04;101892.0;;;5.89;100.0
77749;BME280;66938;52.084;5.228;2023-12-14T08:26:40;101892.0;;;5.92;100.0
77749;BME280;66938;52.084;5.228;2023-12-14T08:29:53;101894.0;;;5.88;100.0
77749;BME280;66938;52.084;5.228;2023-12-14T08:31:29;101899.0;;;5.78;100.0
77749;BME280;66938;52.084;5.228;2023-12-14T08:33:05;101892.0;;;5.77;100.0
77749;BME280;66938;52.084;5.228;2023-12-14T08:36:17;101894.0;;;5.84;100.0
77749;BME280;66938;52.084;5.228;2023-12-14T08:37:53;101901.0;;;5.72;100.0
77749;BME280;66938;52.084;5.228;2023-12-14T08:39:29;101905.0;;;5.86;100.0
77749;BME280;66938;52.084;5.228;2023-12-14T08:42:41;101908.0;;;5.92;100.0
77749;BME280;66938;52.084;5.228;2023-12-14T08:44:18;101912.0;;;5.88;100.0
77749;BME280;66938;52.084;5.228;2023-12-14T08:45:54;101914.0;;;5.97;100.0
77749;BME280;66938;52.084;5.228;2023-12-14T08:47:30;101919.0;;;5.99;100.0
77749;BME280;66938;52.084;5.228;2023-12-14T08:50:42;101925.0;;;6.0;100.0
77749;BME280;66938;52.084;5.228;2023-12-14T08:52:18;101942.0;;;5.94;100.0
77749;BME280;66938;52.084;5.228;2023-12-14T08:53:54;101944.0;;;6.06;100.0
77749;BME280;66938;52.084;5.228;2023-12-14T08:57:06;101947.0;;;6.03;100.0
77749;BME280;66938;52.084;5.228;2023-12-14T08:58:43;101943.0;;;6.03;100.0
77749;BME280;66938;52.084;5.228;2023-12-14T09:00:19;101943.0;;;6.05;100.0
77749;BME280;66938;52.084;5.228;2023-12-14T09:03:31;101944.0;;;6.09;100.0
77749;BME280;66938;52.084;5.228;2023-12-14T09:05:07;101949.0;;;6.08;100.0
77749;BME280;66938;52.084;5.228;2023-12-14T09:06:44;101948.0;;;6.14;100.0
77749;BME280;66938;52.084;5.228;2023-12-14T09:09:56;101955.0;;;6.18;100.0
77749;BME280;66938;52.084;5.228;2023-12-14T09:11:33;101957.0;;;6.2;100.0
77749;BME280;66938;52.084;5.228;2023-12-14T09:13:10;101966.0;;;6.09;100.0
77749;BME280;66938;52.084;5.228;2023-12-14T09:14:46;101963.0;;;6.16;100.0
77749;BME280;66938;52.084;5.228;2023-12-14T09:17:59;101967.0;;;6.19;100.0
77749;BME280;66938;52.084;5.228;2023-12-14T09:19:35;101974.0;;;6.23;100.0
77749;BME280;66938;52.084;5.228;2023-12-14T09:21:11;101972.0;;;6.24;100.0
77749;BME280;66938;52.084;5.228;2023-12-14T09:24:24;101977.0;;;6.27;100.0
77749;BME280;66938;52.084;5.228;2023-12-14T09:25:59;101983.0;;;6.29;100.0
77749;BME280;66938;52.084;5.228;2023-12-14T09:27:36;101982.0;;;6.32;100.0
77749;BME280;66938;52.084;5.228;2023-12-14T09:30:48;101983.0;;;6.35;100.0
77749;BME280;66938;52.084;5.228;2023-12-14T09:32:24;101989.0;;;6.4;100.0
77749;BME280;66938;52.084;5.228;2023-12-14T09:34:00;101994.0;;;6.47;100.0
77749;BME280;66938;52.084;5.228;2023-12-14T09:35:36;101998.0;;;6.52;100.0
77749;BME280;66938;52.084;5.228;2023-12-14T09:38:48;101994.0;;;6.52;100.0
77749;BME280;66938;52.084;5.228;2023-12-14T09:40:24;102005.0;;;6.58;100.0
77749;BME280;66938;52.084;5.228;2023-12-14T09:42:02;102011.0;;;6.58;100.0
77749;BME280;66938;52.084;5.228;2023-12-14T09:45:16;102010.0;;;6.59;100.0
77749;BME280;66938;52.084;5.228;2023-12-14T09:46:53;102019.0;;;6.65;100.0
77749;BME280;66938;52.084;5.228;2023-12-14T09:48:31;102023.0;;;6.64;100.0
77749;BME280;66938;52.084;5.228;2023-12-14T09:51:44;102030.0;;;6.69;100.0
77749;BME280;66938;52.084;5.228;2023-12-14T09:53:20;102034.0;;;6.71;100.0
77749;BME280;66938;52.084;5.228;2023-12-14T09:54:56;102040.0;;;6.76;100.0
77749;BME280;66938;52.084;5.228;2023-12-14T09:56:33;102040.0;;;6.74;100.0
77749;BME280;66938;52.084;5.228;2023-12-14T09:59:51;102042.0;;;6.84;100.0
77749;BME280;66938;52.084;5.228;2023-12-14T10:01:27;102043.0;;;6.81;100.0
77749;BME280;66938;52.084;5.228;2023-12-14T10:03:19;102039.0;;;6.85;100.0
77749;BME280;66938;52.084;5.228;2023-12-14T10:04:56;102037.0;;;6.91;100.0
77749;BME280;66938;52.084;5.228;2023-12-14T10:08:08;102035.0;;;6.91;100.0
77749;BME280;66938;52.084;5.228;2023-12-14T10:09:44;102044.0;;;6.94;100.0
77749;BME280;66938;52.084;5.228;2023-12-14T10:11:21;102051.0;;;6.93;100.0
77749;BME280;66938;52.084;5.228;2023-12-14T10:14:34;102055.0;;;6.96;100.0
77749;BME280;66938;52.084;5.228;2023-12-14T10:16:12;102053.0;;;7.13;100.0
77749;BME280;66938;52.084;5.228;2023-12-14T10:17:50;102053.0;;;7.21;100.0
77749;BME280;66938;52.084;5.228;2023-12-14T10:21:06;102059.0;;;7.03;100.0
77749;BME280;66938;52.084;5.228;2023-12-14T10:22:44;102063.0;;;7.13;100.0
77749;BME280;66938;52.084;5.228;2023-12-14T10:24:19;102058.0;;;7.16;100.0
77749;BME280;66938;52.084;5.228;2023-12-14T10:25:56;102060.0;;;7.2;100.0
77749;BME280;66938;52.084;5.228;2023-12-14T10:29:09;102056.0;;;7.2;100.0
77749;BME280;66938;52.084;5.228;2023-12-14T10:30:45;102059.0;;;7.16;100.0
77749;BME280;66938;52.084;5.228;2023-12-14T10:32:21;102057.0;;;7.27;100.0
77749;BME280;66938;52.084;5.228;2023-12-14T10:35:34;102061.0;;;7.22;100.0
77749;BME280;66938;52.084;5.228;2023-12-14T10:37:11;102056.0;;;7.25;100.0
77749;BME280;66938;52.084;5.228;2023-12-14T10:38:52;102062.0;;;7.27;100.0
77749;BME280;66938;52.084;5.228;2023-12-14T10:40:29;102066.0;;;7.21;100.0
77749;BME280;66938;52.084;5.228;2023-12-14T10:43:44;102070.0;;;7.19;100.0
77749;BME280;66938;52.084;5.228;2023-12-14T10:45:23;102069.0;;;7.21;100.0
77749;BME280;66938;52.084;5.228;2023-12-14T10:47:06;102068.0;;;7.21;100.0
77749;BME280;66938;52.084;5.228;2023-12-14T10:50:20;102071.0;;;7.03;100.0
77749;BME280;66938;52.084;5.228;2023-12-14T10:51:58;102070.0;;;7.11;100.0
77749;BME280;66938;52.084;5.228;2023-12-14T10:53:36;102074.0;;;7.12;100.0
77749;BME280;66938;52.084;5.228;2023-12-14T10:55:20;102074.0;;;7.12;100.0
77749;BME280;66938;52.084;5.228;2023-12-14T10:58:46;102078.0;;;6.98;100.0
77749;BME280;66938;52.084;5.228;2023-12-14T11:00:23;102085.0;;;7.1;100.0
77749;BME280;66938;52.084;5.228;2023-12-14T11:02:07;102090.0;;;7.11;100.0
77749;BME280;66938;52.084;5.228;2023-12-14T11:03:44;102095.0;;;7.1;100.0
77749;BME280;66938;52.084;5.228;2023-12-14T11:06:58;102094.0;;;7.07;100.0
77749;BME280;66938;52.084;5.228;2023-12-14T11:08:34;102094.0;;;7.09;100.0
77749;BME280;66938;52.084;5.228;2023-12-14T11:10:11;102089.0;;;7.1;100.0
77749;BME280;66938;52.084;5.228;2023-12-14T11:13:32;102094.0;;;7.12;100.0
77749;BME280;66938;52.084;5.228;2023-12-14T11:15:10;102094.0;;;7.08;100.0